x

West Santa Barbara 38 Nm West Of Santa Barbara, Ca (46054) Wave Buoy

5:50am - Fri 30th Sep 2016 All times are PDT. -7 hours from GMT.

  • Sig Wave height 5.6ft
  • Swell Direction
  • Peak Period 16s
  • Average Period 5s
  • Wind
    22mph, 27mph gusts
  • Sea Temp 63°f
  • 空気 Temp 59°f
  • Sea Pressure 1016.5mb
  • West Santa Barbara  38 Nm West Of Santa Barbara, Ca
  • West Santa Barbara  38 Nm West Of Santa Barbara, Ca

More Historic Weather Station data

Upgrade to MSW Pro to gain access to the past 30 days of data for over 8000 Wavebouys and Weather Stations around the globe.

Join Pro

Comparision Forecast

View Surf forecast
   
Fri 09/30 5:50am 5.5ft 16s 5s 22 27 mph 1016.5mb 63f 59f
4:50am 5.5ft 9s 5s 22 27 mph 1016.3mb 63f 58f
3:50am 5.5ft 9s 5s 22 27 mph 1016.2mb 63f 58f
2:50am 5ft 9s 5s 22 27 mph 1016.5mb 63f 59f
1:50am 5ft 9s 5s 20 27 mph 1016.3mb 63f 60f
12:50am 5.5ft 9s 6s 20 25 mph 1016.3mb 62f 60f
Thu 09/29 11:50pm 6ft 9s 6s 20 25 mph 1016.7mb 63f 60f
10:50pm 5ft 10s 6s 20 25 mph 1016.6mb 62f 60f
9:50pm 5ft 8s 6s 18 20 mph 1016.5mb 63f 60f
8:50pm 5ft 9s 6s 20 25 mph 1016.5mb 65f 60f
7:50pm 5ft 9s 6s 20 22 mph 1016.2mb 65f 60f
6:50pm 5ft 9s 6s 20 25 mph 1016.1mb 66f 61f
5:50pm 5ft 9s 6s 20 22 mph 1016.2mb 66f 62f
4:50pm 5ft 9s 6s 18 20 mph 1016.2mb 66f 62f
3:50pm 5ft 10s 6s 16 18 mph 1016.7mb 66f 62f
2:50pm 5ft 9s 7s 16 18 mph 1017.1mb 66f 61f
1:50pm 5ft 10s 7s 13 16 mph 1017.5mb 66f 61f
12:50pm 4.5ft 9s 7s 13 16 mph 1017.9mb 66f 61f
11:50am 4.5ft 10s 7s 13 16 mph 1018.1mb 65f 60f
10:50am 4.5ft 9s 6s 13 16 mph 1018mb 65f 59f
9:50am 4.5ft 10s 6s 13 16 mph 1017.8mb 64f 59f
8:50am 4.5ft 10s 6s 13 16 mph 1016.9mb 64f 60f
7:50am 4.5ft 10s 6s 16 18 mph 1016.2mb 64f 59f
6:50am 5ft 9s 7s 13 16 mph 1015.8mb 64f 58f
5:50am 5ft 9s 7s 13 16 mph 1015.3mb 64f 59f
4:50am 5ft 9s 7s 13 16 mph 1014.6mb 65f 59f
3:50am 5ft 9s 7s 13 18 mph 1014.3mb 65f 60f
2:50am 4.5ft 9s 6s 16 18 mph 1014.2mb 64f 60f
1:50am 4.5ft 9s 6s 13 18 mph 1014.5mb 63f 60f
12:50am 4.5ft 9s 6s 13 16 mph 1014.6mb 63f 60f
Wed 09/28 11:50pm 4.5ft 8s 6s 16 18 mph 1014.5mb 63f 60f
10:50pm 4.5ft 9s 7s 13 16 mph 1014.5mb 62f 62f
9:50pm 4.5ft 9s 6s 9 11 mph 1014.6mb 63f 62f
8:50pm 4.5ft 10s 7s 11 13 mph 1014.2mb 63f 62f
7:50pm 4.5ft 9s 7s 11 13 mph 1013.5mb 63f 62f
6:50pm 4ft 10s 6s 11 13 mph 1012.9mb 64f 63f
5:50pm 4.5ft 9s 7s 11 13 mph 1012.7mb 65f 63f
4:50pm 4.5ft 10s 7s 11 13 mph 1012.7mb 65f 63f
3:50pm 3.5ft 9s 7s 11
mph
1012.9mb 65f 62f
2:50pm 4.5ft 9s 7s 9 11 mph 1013.2mb 64f 61f
1:50pm 4.5ft 10s 7s 9 11 mph 1013.3mb 64f 62f
12:50pm 4ft 9s 7s 7
mph
1013.5mb 64f 62f
11:50am 4.5ft 9s 7s 7
mph
1013.6mb 64f 62f
10:50am 4.5ft 9s 7s 4
mph
1013.8mb 63f 61f
9:50am 5ft 8s 7s 7 9 mph 1013.6mb 62f 60f
8:50am 5ft 9s 7s 9
mph
1013.4mb 62f 59f
7:50am 5ft 9s 7s 9 11 mph 1012.8mb 62f 59f
6:50am 4.5ft 9s 7s 9 11 mph 1012.2mb 62f 60f
5:50am 4.5ft 9s 6s 9 11 mph 1012mb 62f 61f
4:50am 4.5ft 10s 7s 11 13 mph 1011.4mb 62f 63f
3:50am 4.5ft 10s 7s 11 13 mph 1011.4mb 62f 64f
2:50am 4.5ft 10s 7s 11 13 mph 1011.7mb 63f 64f
1:50am 4ft 11s 7s 9 11 mph 1011.6mb 62f 64f
12:50am 4.5ft 10s 7s 4 7 mph 1011.7mb 62f 64f
Tue 09/27 11:50pm 4ft 10s 6s 4
mph
1011.8mb 62f 65f
10:50pm 4ft 11s 6s 2 4 mph 1011.7mb 62f 64f
9:50pm 4.5ft 11s 7s 4 7 mph 1011.4mb 63f 64f
8:50pm 3.5ft 11s 7s 4 7 mph 1011.1mb 64f 65f
7:50pm 4ft 11s 8s 7
mph
1010.3mb 65f 66f
6:50pm 3.5ft 9s 8s 4 7 mph 1010.2mb 66f 68f
5:50pm 3.5ft 9s 8s 2 4 mph 1010.3mb 66f 70f
4:50pm 3.5ft 10s 8s 7 9 mph 1010.2mb 67f 70f
3:50pm 3.5ft 11s 8s 4 7 mph 1010.1mb 67f 70f
2:50pm 3.5ft 10s 8s 7 9 mph 1010mb 67f 71f
1:50pm 3.5ft 9s 8s  -  2 mph 1010.1mb 65f 69f
12:50pm 3.5ft 10s 8s 7 9 mph 1010.2mb 65f 68f
11:50am 3.5ft 10s 7s 4 7 mph 1010.5mb 64f 70f
10:50am 3.5ft 10s 7s 7 9 mph 1010.7mb 63f 69f
9:50am 3.5ft 11s 7s 7 11 mph 1010.7mb 63f 73f
8:50am 3.5ft 10s 7s 2 4 mph 1010.4mb 62f 71f
7:50am 3.5ft 11s 7s 9 11 mph 1009.9mb 62f 71f
6:50am 3.5ft 10s 7s 11 13 mph 1009.8mb 62f 71f
5:50am 3.5ft 11s 7s 9
mph
1009.9mb 62f 68f
4:50am 3.5ft 14s 7s 11 13 mph 1010mb 62f 71f
3:50am 3.5ft 15s 7s 11
mph
1010.2mb 62f 71f
2:50am 3ft 14s 8s 9 11 mph 1010.7mb 62f 68f
1:50am 3ft 15s 7s 11 13 mph 1011.2mb 62f 68f
12:50am 3ft 14s 8s 13
mph
1011.4mb 63f 70f
Mon 09/26 11:50pm 2.5ft 15s 7s 9 11 mph 1011.9mb 63f 71f
10:50pm 3.5ft 14s 8s 9 11 mph 1011.8mb 63f 71f
9:50pm 3.5ft 15s 7s 9 11 mph 1011.9mb 62f 71f
8:50pm 3.5ft 8s 6s 11
mph
1011.9mb 62f 71f
7:50pm 3.5ft 15s 7s 16 18 mph 1011.5mb 63f 71f
6:50pm 4ft 15s 8s 13 16 mph 1011.4mb 64f 73f
5:50pm 3.5ft 15s 7s 13
mph
1011.5mb 64f 71f
4:50pm 3.5ft 15s 7s 9
mph
1011.7mb 66f 71f
3:50pm 3.5ft 15s 7s 11
mph
1012.2mb 65f 70f
2:50pm 3.5ft 9s 8s 7 9 mph 1012.5mb 68f 78f
1:50pm 3.5ft 15s 8s 4
mph
1013.2mb 66f 82f